Time;durP1;ratioP1;P1;durP2;ratioP2;P2;SDS_P1;SDS_P2;PMS_P1;PMS_P2;Temp;Humidity;BMP_temperature;BMP_pressure;BME280_temperature;BME280_humidity;BME280_pressure;Samples;Min_cycle;Max_cycle;Signal;HPM_P1;HPM_P2
2022/04/10 00:00:29;;;;;;;4.27;3.60;;;;;;;0.65;100.00;96280.91;5091834;28;20444;-73
2022/04/10 00:02:56;;;;;;;4.03;3.70;;;;;;;0.57;100.00;96258.81;5092046;28;21014;-73
2022/04/10 00:05:23;;;;;;;11.80;3.80;;;;;;;0.56;100.00;96249.47;5091941;28;20428;-73
2022/04/10 00:07:49;;;;;;;7.30;4.03;;;;;;;0.44;100.00;96235.97;5067115;28;20552;-73
2022/04/10 00:10:16;;;;;;;3.93;3.00;;;;;;;0.65;100.00;96277.53;5087692;28;20528;-73
2022/04/10 00:12:43;;;;;;;5.60;4.43;;;;;;;0.02;100.00;96183.53;5093202;28;20437;-73
2022/04/10 00:15:11;;;;;;;5.23;3.63;;;;;;;0.31;100.00;96227.94;5091962;28;20478;-73
2022/04/10 00:17:41;;;;;;;6.30;3.30;;;;;;;0.63;100.00;96264.78;5091589;28;20504;-73
2022/04/10 00:20:09;;;;;;;5.20;2.97;;;;;;;0.53;100.00;96246.59;5091780;28;20421;-73
2022/04/10 00:22:46;;;;;;;6.27;3.30;;;;;;;0.70;100.00;96283.50;5092507;28;20466;-73
2022/04/10 00:25:16;;;;;;;4.10;3.10;;;;;;;0.73;100.00;96287.41;5091435;28;20458;-73
2022/04/10 00:27:43;;;;;;;3.97;3.03;;;;;;;0.71;100.00;96285.06;5074415;28;20527;-73
2022/04/10 00:30:12;;;;;;;3.67;3.33;;;;;;;0.49;100.00;96261.97;5091294;28;20536;-73
2022/04/10 00:32:40;;;;;;;5.60;4.70;;;;;;;0.73;100.00;96284.81;5074555;28;20526;-73
2022/04/10 00:35:08;;;;;;;4.20;3.77;;;;;;;0.71;100.00;96287.66;5091391;28;20443;-73
2022/04/10 00:37:35;;;;;;;4.67;2.70;;;;;;;0.72;100.00;96297.03;5090905;28;20838;-74
2022/04/10 00:40:04;;;;;;;4.40;4.10;;;;;;;0.51;100.00;96269.50;5074277;28;20432;-73
2022/04/10 00:42:35;;;;;;;4.97;3.10;;;;;;;0.61;100.00;96297.31;5091079;28;20506;-74
2022/04/10 00:45:05;;;;;;;5.40;2.53;;;;;;;0.58;100.00;96291.59;5074037;28;20523;-74
2022/04/10 00:47:32;;;;;;;4.20;3.80;;;;;;;0.57;100.00;96297.84;5090833;28;20499;-74
2022/04/10 00:50:01;;;;;;;3.63;2.80;;;;;;;0.64;100.00;96297.56;5091158;28;20448;-74
2022/04/10 00:52:29;;;;;;;6.97;2.60;;;;;;;0.49;100.00;96271.59;5092449;28;20768;-74
2022/04/10 00:54:57;;;;;;;4.13;3.83;;;;;;;0.42;100.00;96273.69;5090782;28;20431;-74
2022/04/10 00:57:24;;;;;;;4.53;3.77;;;;;;;0.63;100.00;96306.41;5073960;28;20546;-74
2022/04/10 00:59:51;;;;;;;4.00;3.37;;;;;;;0.36;100.00;96261.72;5090985;28;20444;-74
2022/04/10 01:02:18;;;;;;;5.80;4.00;;;;;;;0.37;100.00;96265.88;5090567;28;20556;-74
2022/04/10 01:04:46;;;;;;;3.80;3.50;;;;;;;0.24;100.00;96244.56;5090679;28;20425;-74
2022/04/10 01:07:15;;;;;;;10.23;3.43;;;;;;;0.45;100.00;96299.16;5070741;28;20457;-74
2022/04/10 01:09:46;;;;;;;3.10;2.90;;;;;;;0.08;100.00;96260.44;5080997;28;20448;-74
2022/04/10 01:12:13;;;;;;;4.77;3.80;;;;;;;0.28;100.00;96295.03;5090516;28;20439;-74
2022/04/10 01:14:44;;;;;;;5.77;3.50;;;;;;;0.07;100.00;96267.47;5074433;28;21008;-74
2022/04/10 01:17:14;;;;;;;4.17;3.60;;;;;;;-0.02;100.00;96305.38;5091071;28;20444;-74
2022/04/10 01:19:42;;;;;;;4.10;3.73;;;;;;;-0.20;100.00;96301.47;5090823;28;20787;-74
2022/04/10 01:22:29;;;;;;;3.40;3.00;;;;;;;-0.33;100.00;96279.38;5073693;28;20447;-74
2022/04/10 01:24:56;;;;;;;2.87;2.50;;;;;;;-0.22;100.00;96308.75;5073630;28;20528;-74
2022/04/10 01:27:25;;;;;;;3.33;3.00;;;;;;;-0.55;100.00;96249.47;5073977;28;20457;-74
2022/04/10 01:29:52;;;;;;;3.43;2.50;;;;;;;-0.18;100.00;96309.78;5073388;28;20530;-74
2022/04/10 01:32:18;;;;;;;2.90;2.60;;;;;;;-0.35;100.00;96299.66;5073576;28;20977;-74
2022/04/10 01:34:47;;;;;;;5.00;3.17;;;;;;;-0.20;100.00;96313.69;5091827;28;20799;-74
2022/04/10 01:37:15;;;;;;;2.90;2.40;;;;;;;-0.42;100.00;96293.13;5090567;28;20509;-74
2022/04/10 01:39:44;;;;;;;3.20;3.00;;;;;;;-0.50;100.00;96265.84;5073960;28;20440;-74
2022/04/10 01:42:11;;;;;;;4.67;3.20;;;;;;;-0.22;100.00;96287.19;5090754;28;20805;-74
2022/04/10 01:44:42;;;;;;;5.70;4.07;;;;;;;-0.08;100.00;96314.22;5091842;28;20432;-74
2022/04/10 01:47:11;;;;;;;3.53;3.23;;;;;;;-0.15;100.00;96301.47;5090344;28;20454;-74
2022/04/10 01:49:39;;;;;;;5.47;3.03;;;;;;;-0.11;100.00;96310.34;5074117;28;20429;-74
2022/04/10 01:52:06;;;;;;;3.83;3.07;;;;;;;-0.01;100.00;96310.31;5090538;28;20461;-74
2022/04/10 01:54:33;;;;;;;4.10;2.40;;;;;;;-0.18;100.00;96278.63;5090833;28;20443;-74
2022/04/10 01:57:00;;;;;;;7.50;4.87;;;;;;;0.02;100.00;96296.06;5073957;28;20451;-74
2022/04/10 01:59:29;;;;;;;7.60;3.80;;;;;;;0.06;100.00;96286.69;5073650;28;20444;-74
2022/04/10 02:01:56;;;;;;;8.30;3.60;;;;;;;-0.05;100.00;96293.69;5090764;28;20438;-75
2022/04/10 02:04:23;;;;;;;5.20;4.10;;;;;;;-0.58;100.00;96257.78;5090281;28;20977;-74
2022/04/10 02:06:50;;;;;;;4.40;3.20;;;;;;;-0.80;100.00;96273.53;5070553;28;20458;-74
2022/04/10 02:09:18;;;;;;;5.47;3.43;;;;;;;-0.57;100.00;96293.88;5077431;28;20421;-74
2022/04/10 02:11:45;;;;;;;3.70;3.40;;;;;;;-0.82;100.00;96245.25;5091423;28;20428;-75
2022/04/10 02:14:13;;;;;;;5.20;4.30;;;;;;;-0.53;100.00;96288.97;5090292;28;20524;-74
2022/04/10 02:16:40;;;;;;;3.90;3.50;;;;;;;-0.66;100.00;96265.06;5090557;28;20518;-75
2022/04/10 02:19:07;;;;;;;5.27;4.13;;;;;;;-0.54;100.00;96258.81;5090352;28;20449;-75
2022/04/10 02:21:34;;;;;;;4.87;3.50;;;;;;;-0.09;100.00;96305.66;5073457;28;20528;-75
2022/04/10 02:24:01;;;;;;;4.97;3.73;;;;;;;-0.41;100.00;96279.09;5090118;28;20889;-75
2022/04/10 02:26:28;;;;;;;4.17;3.43;;;;;;;-0.64;100.00;96260.38;5073480;28;20503;-75
2022/04/10 02:28:55;;;;;;;5.30;3.80;;;;;;;-0.27;100.00;96310.56;5073539;28;20494;-74
2022/04/10 02:31:22;;;;;;;3.90;3.60;;;;;;;-0.70;100.00;96258.00;5090292;28;20442;-74
2022/04/10 02:33:48;;;;;;;3.80;3.50;;;;;;;-0.50;100.00;96304.81;5073306;28;20790;-74
2022/04/10 02:36:16;;;;;;;4.47;4.03;;;;;;;-0.48;100.00;96296.75;5073342;28;20514;-74
2022/04/10 02:38:43;;;;;;;6.03;3.40;;;;;;;-0.30;100.00;96312.63;5073241;28;20524;-75
2022/04/10 02:41:10;;;;;;;3.47;3.17;;;;;;;-0.46;100.00;96277.28;5089903;28;20837;-74
2022/04/10 02:43:39;;;;;;;4.10;3.57;;;;;;;-0.48;100.00;96278.59;5090009;28;20555;-74
2022/04/10 02:46:06;;;;;;;3.70;3.30;;;;;;;-0.45;100.00;96307.41;5092117;28;20808;-74
2022/04/10 02:48:39;;;;;;;4.33;3.67;;;;;;;-0.66;100.00;96283.22;5077962;28;20449;-75
2022/04/10 02:51:09;;;;;;;3.30;3.00;;;;;;;-0.39;100.00;96282.25;5093963;28;20440;-74
2022/04/10 02:53:36;;;;;;;5.17;3.53;;;;;;;-0.27;100.00;96274.19;5093263;28;20430;-74
2022/04/10 02:56:03;;;;;;;4.10;3.80;;;;;;;-0.28;100.00;96283.78;5093248;28;20513;-74
2022/04/10 02:58:30;;;;;;;4.00;3.70;;;;;;;-0.16;100.00;96310.31;5076517;28;20437;-74
2022/04/10 03:00:56;;;;;;;4.40;4.00;;;;;;;-0.39;100.00;96297.81;5093142;28;20424;-74
2022/04/10 03:03:25;;;;;;;7.33;3.63;;;;;;;-0.39;100.00;96303.81;5092941;28;20840;-74
2022/04/10 03:05:52;;;;;;;6.00;5.50;;;;;;;-0.57;100.00;96280.09;5072816;28;20436;-74
2022/04/10 03:08:20;;;;;;;5.37;4.97;;;;;;;-0.47;100.00;96287.94;5084959;28;20854;-74
2022/04/10 03:10:49;;;;;;;8.37;7.67;;;;;;;-0.56;100.00;96279.84;5093014;28;20448;-74
2022/04/10 03:13:16;;;;;;;7.67;5.60;;;;;;;-0.36;100.00;96307.69;5092855;28;20518;-74
2022/04/10 03:15:49;;;;;;;8.20;5.77;;;;;;;-0.63;100.00;96274.91;5093197;28;20440;-74
2022/04/10 03:18:16;;;;;;;6.83;6.23;;;;;;;-0.31;100.00;96318.88;5092853;28;20460;-74
2022/04/10 03:20:43;;;;;;;7.03;6.23;;;;;;;-0.56;100.00;96294.66;5092896;28;20420;-74
2022/04/10 03:23:10;;;;;;;6.77;6.23;;;;;;;-0.33;100.00;96315.75;5092384;28;20468;-74
2022/04/10 03:25:38;;;;;;;6.97;6.40;;;;;;;-0.32;100.00;96308.72;5075984;28;20503;-74
2022/04/10 03:28:05;;;;;;;6.37;5.73;;;;;;;-0.28;100.00;96320.16;5092485;28;20441;-74
2022/04/10 03:30:32;;;;;;;6.60;6.00;;;;;;;-0.41;100.00;96298.06;5092634;28;20531;-74
2022/04/10 03:32:59;;;;;;;7.23;6.53;;;;;;;-0.37;100.00;96313.94;5075731;28;20442;-74
2022/04/10 03:35:27;;;;;;;8.50;7.13;;;;;;;-0.43;100.00;96309.75;5092525;28;20443;-74
2022/04/10 03:37:54;;;;;;;8.47;7.67;;;;;;;-0.06;100.00;96341.50;5092302;28;20467;-74
2022/04/10 03:40:21;;;;;;;6.77;6.17;;;;;;;-0.21;100.00;96338.13;5094036;28;20457;-74
2022/04/10 03:42:50;;;;;;;6.97;6.37;;;;;;;-0.16;100.00;96332.91;5073977;28;20945;-74
2022/04/10 03:45:17;;;;;;;6.60;5.50;;;;;;;-0.40;100.00;96310.03;5075734;28;20441;-74
2022/04/10 03:47:43;;;;;;;7.00;6.40;;;;;;;-0.05;100.00;96326.69;5092063;28;20456;-74
2022/04/10 03:50:14;;;;;;;7.40;6.80;;;;;;;-0.33;100.00;96299.38;5075931;28;20495;-74
2022/04/10 03:52:40;;;;;;;7.43;6.73;;;;;;;-0.36;100.00;96300.69;5075247;28;20489;-74
2022/04/10 03:55:07;;;;;;;8.07;7.27;;;;;;;-0.01;100.00;96331.13;5093261;28;20435;-74
2022/04/10 03:57:34;;;;;;;7.57;6.87;;;;;;;-0.05;100.00;96330.09;5091189;28;20972;-74
2022/04/10 04:00:02;;;;;;;8.43;6.47;;;;;;;0.16;100.00;96343.88;5075340;28;20427;-74
2022/04/10 04:02:42;;;;;;;8.30;7.50;;;;;;;-0.20;100.00;96331.88;5093290;28;20412;-74
2022/04/10 04:05:17;;;;;;;8.43;7.60;;;;;;;-0.03;100.00;96356.59;5091789;28;20434;-74
2022/04/10 04:07:44;;;;;;;6.40;5.90;;;;;;;-0.27;100.00;96305.34;5084246;28;20458;-74
2022/04/10 04:10:11;;;;;;;9.60;7.53;;;;;;;-0.25;100.00;96309.28;5085974;28;20673;-74
2022/04/10 04:12:38;;;;;;;7.03;6.33;;;;;;;0.08;100.00;96354.00;5092802;28;20437;-74
2022/04/10 04:15:05;;;;;;;8.13;7.07;;;;;;;0.05;100.00;96355.31;5092421;28;20427;-74
2022/04/10 04:17:32;;;;;;;11.30;7.17;;;;;;;0.14;100.00;96340.00;5092708;28;20501;-74
2022/04/10 04:20:01;;;;;;;8.40;7.23;;;;;;;0.36;100.00;96368.31;5074718;28;20433;-74
2022/04/10 04:22:27;;;;;;;8.27;7.57;;;;;;;0.33;100.00;96361.81;5074665;28;20547;-74
2022/04/10 04:24:54;;;;;;;8.07;7.27;;;;;;;0.02;100.00;96316.84;5092909;28;20487;-74
2022/04/10 04:27:21;;;;;;;8.37;7.57;;;;;;;0.33;100.00;96374.81;5091134;28;20932;-75
2022/04/10 04:29:48;;;;;;;7.63;6.83;;;;;;;0.37;100.00;96381.06;5091355;28;20443;-75
2022/04/10 04:32:15;;;;;;;9.50;7.50;;;;;;;0.18;100.00;96344.41;5091118;28;20432;-75
2022/04/10 04:34:42;;;;;;;7.43;6.40;;;;;;;0.33;100.00;96385.22;5091196;28;20490;-75
2022/04/10 04:37:09;;;;;;;8.27;7.47;;;;;;;0.31;100.00;96379.50;5090977;28;20833;-75
2022/04/10 04:39:36;;;;;;;8.30;7.50;;;;;;;0.09;100.00;96352.97;5074197;28;20447;-75
2022/04/10 04:42:02;;;;;;;8.80;8.00;;;;;;;0.17;100.00;96371.44;5074247;28;20432;-73
2022/04/10 04:44:32;;;;;;;8.13;7.13;;;;;;;0.07;100.00;96355.81;5074390;28;20547;-73
2022/04/10 04:47:00;;;;;;;7.67;7.07;;;;;;;0.24;100.00;96379.75;5074396;28;20496;-73
2022/04/10 04:49:27;;;;;;;10.53;8.57;;;;;;;0.08;100.00;96356.59;5090734;28;20451;-73
2022/04/10 04:51:58;;;;;;;8.47;7.67;;;;;;;0.03;100.00;96360.00;5090840;28;20441;-73
2022/04/10 04:54:25;;;;;;;8.70;7.60;;;;;;;0.29;100.00;96389.41;5090897;28;20575;-73
2022/04/10 04:56:52;;;;;;;8.97;8.03;;;;;;;0.39;100.00;96399.78;5090597;28;21033;-73
2022/04/10 04:59:18;;;;;;;7.00;6.40;;;;;;;0.29;100.00;96402.41;5090746;28;20440;-73
2022/04/10 05:01:45;;;;;;;9.10;7.40;;;;;;;0.29;100.00;96405.00;5090715;28;20436;-74
2022/04/10 05:04:14;;;;;;;6.30;5.77;;;;;;;0.24;100.00;96389.38;5074020;28;20879;-74
2022/04/10 05:06:41;;;;;;;7.83;7.20;;;;;;;0.40;100.00;96426.56;5070231;28;20460;-74
2022/04/10 05:09:07;;;;;;;10.20;7.40;;;;;;;0.43;100.00;96418.28;5089258;28;20443;-74
2022/04/10 05:11:34;;;;;;;8.93;8.03;;;;;;;0.46;100.00;96425.53;5090082;28;20440;-74
2022/04/10 05:14:02;;;;;;;8.03;7.33;;;;;;;0.26;100.00;96403.66;5073179;28;20449;-74
2022/04/10 05:16:29;;;;;;;9.00;7.00;;;;;;;0.23;100.00;96393.00;5090529;28;20470;-74
2022/04/10 05:18:57;;;;;;;7.90;7.20;;;;;;;0.45;100.00;96429.97;5090116;28;20990;-74
2022/04/10 05:21:25;;;;;;;8.03;7.33;;;;;;;0.53;100.00;96441.66;5073423;28;20978;-74
2022/04/10 05:23:53;;;;;;;9.13;7.53;;;;;;;0.24;100.00;96417.97;5089758;28;20558;-74
2022/04/10 05:26:22;;;;;;;8.13;7.33;;;;;;;0.27;100.00;96407.06;5089918;28;20853;-74
2022/04/10 05:28:54;;;;;;;8.77;7.87;;;;;;;0.36;100.00;96435.94;5089994;28;20476;-74
2022/04/10 05:31:25;;;;;;;8.10;7.30;;;;;;;0.25;100.00;96417.72;5073804;28;20441;-74
2022/04/10 05:33:53;;;;;;;9.07;8.13;;;;;;;0.53;100.00;96455.44;5073469;28;20455;-74
2022/04/10 05:36:21;;;;;;;14.37;8.17;;;;;;;0.60;100.00;96457.81;5073069;28;20456;-73
2022/04/10 05:38:49;;;;;;;11.63;9.30;;;;;;;0.26;100.00;96439.28;5089752;28;20451;-73
2022/04/10 05:41:18;;;;;;;17.67;11.10;;;;;;;0.49;100.00;96464.81;5073481;28;20432;-73
2022/04/10 05:43:50;;;;;;;13.97;9.80;;;;;;;0.35;100.00;96447.38;5089602;28;20557;-73
2022/04/10 05:46:18;;;;;;;13.23;9.00;;;;;;;0.32;100.00;96450.50;5073129;28;20521;-74
2022/04/10 05:48:51;;;;;;;8.77;6.80;;;;;;;0.43;100.00;96447.66;5073895;28;20449;-74
2022/04/10 05:51:17;;;;;;;9.23;6.80;;;;;;;0.35;100.00;96445.56;5072886;28;20427;-74
2022/04/10 05:53:44;;;;;;;9.20;6.87;;;;;;;0.40;100.00;96453.38;5072909;28;20881;-74
2022/04/10 05:56:11;;;;;;;8.03;6.87;;;;;;;0.47;100.00;96474.69;5073018;28;20456;-73
2022/04/10 05:58:43;;;;;;;7.23;6.53;;;;;;;0.43;100.00;96463.25;5089911;28;21003;-74
2022/04/10 06:01:11;;;;;;;9.60;7.90;;;;;;;0.45;100.00;96465.59;5073116;28;20501;-74
2022/04/10 06:03:38;;;;;;;7.53;6.83;;;;;;;0.54;100.00;96459.63;5089474;28;20464;-74
2022/04/10 06:06:09;;;;;;;8.37;6.90;;;;;;;0.68;100.00;96480.72;5073483;28;20456;-74
2022/04/10 06:08:42;;;;;;;6.93;5.90;;;;;;;0.42;100.00;96476.53;5089568;28;20485;-73
2022/04/10 06:11:08;;;;;;;8.47;7.37;;;;;;;0.28;100.00;96461.41;5089544;28;20440;-73
2022/04/10 06:13:36;;;;;;;9.30;7.77;;;;;;;0.74;100.00;96500.50;5072756;28;21023;-74
2022/04/10 06:16:09;;;;;;;7.23;6.50;;;;;;;0.72;100.00;96481.75;5074056;28;20509;-74
2022/04/10 06:18:37;;;;;;;9.93;6.40;;;;;;;0.89;100.00;96490.09;5089277;28;20836;-74
2022/04/10 06:21:06;;;;;;;6.50;5.90;;;;;;;0.92;100.00;96517.41;5075890;28;20441;-74
2022/04/10 06:23:34;;;;;;;8.70;7.30;;;;;;;0.43;100.00;96473.66;5076405;28;20441;-74
2022/04/10 06:26:10;;;;;;;8.03;6.03;;;;;;;0.91;100.00;96512.47;5078045;28;20578;-74
2022/04/10 06:28:36;;;;;;;6.60;6.00;;;;;;;0.85;100.00;96504.66;5093283;28;20436;-74
2022/04/10 06:31:07;;;;;;;6.63;6.07;;;;;;;0.91;100.00;96504.66;5093268;28;20436;-74
2022/04/10 06:33:36;;;;;;;15.03;8.67;;;;;;;0.71;100.00;96488.00;5093183;28;20944;-74
2022/04/10 06:36:03;;;;;;;12.17;10.03;;;;;;;0.86;100.00;96502.84;5093042;28;20457;-72
2022/04/10 06:38:31;;;;;;;14.13;10.97;;;;;;;0.84;100.00;96515.34;5093073;28;20449;-73
2022/04/10 06:41:06;;;;;;;5.90;5.30;;;;;;;0.86;100.00;96516.63;5077516;28;20435;-73
2022/04/10 06:43:33;;;;;;;12.03;7.63;;;;;;;0.75;100.00;96507.25;5092823;28;20929;-73
2022/04/10 06:46:35;;;;;;;9.40;5.87;;;;;;;0.64;100.00;96515.28;5087633;28;20551;-73
2022/04/10 06:49:12;;;;;;;10.00;6.73;;;;;;;0.93;100.00;96545.00;5093050;28;20451;-73
2022/04/10 06:51:41;;;;;;;8.03;5.80;;;;;;;0.77;100.00;96517.41;5092900;28;20441;-73
2022/04/10 06:54:08;;;;;;;12.10;9.17;;;;;;;0.80;100.00;96507.28;5092806;28;20439;-73
2022/04/10 06:56:35;;;;;;;8.97;6.23;;;;;;;0.79;100.00;96510.88;5075951;28;20465;-73
2022/04/10 06:59:02;;;;;;;6.93;6.13;;;;;;;1.08;100.00;96546.84;5075905;28;20451;-73
2022/04/10 07:01:29;;;;;;;10.30;8.93;;;;;;;1.11;100.00;96554.13;5094059;28;20428;-73
2022/04/10 07:04:03;;;;;;;12.37;11.07;;;;;;;0.96;100.00;96531.47;5077134;28;20999;-73
2022/04/10 07:06:32;;;;;;;12.10;11.20;;;;;;;1.17;100.00;96560.91;5092389;28;20464;-73
2022/04/10 07:08:59;;;;;;;17.87;16.10;;;;;;;1.15;100.00;96547.38;5080239;28;20437;-73
2022/04/10 07:11:31;;;;;;;6.90;6.00;;;;;;;1.03;100.00;96533.81;5076626;28;20441;-73
2022/04/10 07:14:00;;;;;;;7.60;6.70;;;;;;;0.83;100.00;96514.56;5092264;28;20995;-73
2022/04/10 07:16:27;;;;;;;12.50;11.23;;;;;;;1.21;100.00;96535.16;5092930;28;20467;-73
2022/04/10 07:18:54;;;;;;;14.00;12.70;;;;;;;1.36;100.00;96541.13;5075681;28;20443;-73
2022/04/10 07:24:14;;;;;;;23.60;20.13;;;;;;;1.67;100.00;96552.28;5092193;28;20464;-73
2022/04/10 07:26:49;;;;;;;12.33;7.60;;;;;;;1.65;100.00;96543.16;5076235;28;20463;-73
2022/04/10 07:29:18;;;;;;;13.73;11.87;;;;;;;1.89;100.00;96556.41;5092569;28;20861;-73
2022/04/10 07:31:47;;;;;;;6.57;5.67;;;;;;;1.60;100.00;96554.38;5074457;28;20888;-73
2022/04/10 07:34:14;;;;;;;27.77;25.07;;;;;;;1.80;100.00;96558.78;5092125;28;20472;-73
2022/04/10 07:37:01;;;;;;;12.70;11.53;;;;;;;1.78;100.00;96556.44;5092004;28;20470;-73
2022/04/10 07:39:33;;;;;;;8.77;6.70;;;;;;;1.77;100.00;96541.06;5076022;28;20527;-73
2022/04/10 07:42:12;;;;;;;13.37;11.97;;;;;;;1.98;100.00;96591.31;5076926;28;20438;-72
2022/04/10 07:44:59;;;;;;;8.10;6.27;;;;;;;1.97;100.00;96580.09;5091754;28;20464;-73
2022/04/10 07:47:44;;;;;;;8.70;7.90;;;;;;;1.95;100.00;96550.91;5093615;28;20960;-74
2022/04/10 07:50:11;;;;;;;9.87;6.60;;;;;;;2.14;100.00;96577.22;5075878;28;20440;-74
2022/04/10 07:52:38;;;;;;;14.30;7.20;;;;;;;2.11;100.00;96563.91;5092007;28;20447;-74
2022/04/10 07:55:17;;;;;;;9.27;8.00;;;;;;;2.34;100.00;96579.72;5092215;28;20484;-75
2022/04/10 07:57:46;;;;;;;6.17;5.70;;;;;;;2.39;100.00;96560.66;5092064;28;20527;-75
2022/04/10 08:00:14;;;;;;;5.33;4.83;;;;;;;2.61;100.00;96602.06;5091605;28;20439;-75
2022/04/10 08:02:50;;;;;;;5.50;5.00;;;;;;;2.46;100.00;96594.31;5076073;28;20481;-74
2022/04/10 08:05:30;;;;;;;6.07;4.97;;;;;;;2.65;100.00;96588.22;5076385;28;20471;-74
2022/04/10 08:08:10;;;;;;;3.50;3.20;;;;;;;2.48;100.00;96608.66;5080460;28;20438;-74
2022/04/10 08:10:37;;;;;;;3.90;3.50;;;;;;;2.40;100.00;96608.41;5089161;28;20998;-75
2022/04/10 08:13:05;;;;;;;9.03;3.70;;;;;;;2.14;100.00;96603.28;5092700;28;20445;-74
2022/04/10 08:15:32;;;;;;;9.03;4.23;;;;;;;2.20;100.00;96604.81;5093107;28;20451;-73
2022/04/10 08:17:58;;;;;;;6.03;5.17;;;;;;;2.29;100.00;96625.94;5074511;28;20455;-73
2022/04/10 08:20:25;;;;;;;5.57;5.10;;;;;;;2.52;100.00;96627.16;5091174;28;21015;-73
2022/04/10 08:22:53;;;;;;;5.80;4.07;;;;;;;2.24;100.00;96582.38;5091066;28;20450;-72
2022/04/10 08:25:23;;;;;;;5.70;4.20;;;;;;;2.22;100.00;96591.50;5090824;28;20472;-72
2022/04/10 08:27:51;;;;;;;5.17;4.33;;;;;;;2.44;100.00;96627.72;5074346;28;20450;-73
2022/04/10 08:30:18;;;;;;;4.00;3.20;;;;;;;2.14;100.00;96600.69;5090774;28;20486;-73
2022/04/10 08:32:45;;;;;;;8.73;3.80;;;;;;;2.64;100.00;96604.91;5090897;28;20920;-73
2022/04/10 08:35:12;;;;;;;4.83;3.23;;;;;;;2.67;100.00;96607.00;5092255;28;20429;-73
2022/04/10 08:37:40;;;;;;;6.70;3.07;;;;;;;3.12;100.00;96633.94;5090929;28;20552;-73
2022/04/10 08:40:28;;;;;;;5.97;3.00;;;;;;;2.96;100.00;96608.94;5074129;28;20433;-73
2022/04/10 08:42:56;;;;;;;8.50;3.00;;;;;;;3.23;100.00;96642.50;5032216;28;20435;-73
2022/04/10 08:45:25;;;;;;;4.60;4.13;;;;;;;3.24;100.00;96650.06;5049328;28;20953;-72
2022/04/10 08:47:53;;;;;;;3.23;2.93;;;;;;;3.23;100.00;96642.50;5049020;28;20453;-73
2022/04/10 08:50:21;;;;;;;4.57;2.73;;;;;;;3.17;100.00;96657.41;5016271;28;20439;-74
2022/04/10 08:52:54;;;;;;;7.97;3.20;;;;;;;2.56;100.00;96612.53;5032488;28;20471;-73
2022/04/10 08:55:21;;;;;;;3.57;2.50;;;;;;;3.08;100.00;96658.25;5016432;28;20435;-74
2022/04/10 08:57:48;;;;;;;6.90;2.80;;;;;;;2.92;100.00;96619.13;5032372;28;20462;-74
2022/04/10 09:00:17;;;;;;;2.20;2.00;;;;;;;3.20;100.00;96630.72;5049236;28;20882;-74
2022/04/10 09:02:50;;;;;;;6.17;3.57;;;;;;;3.25;100.00;96661.28;5030292;28;20470;-74
2022/04/10 09:05:20;;;;;;;7.33;3.50;;;;;;;3.05;100.00;96662.16;5024754;28;20491;-74
2022/04/10 09:08:13;;;;;;;12.20;2.90;;;;;;;2.75;100.00;96636.19;5033303;28;20904;-74
2022/04/10 09:10:57;;;;;;;6.03;2.70;;;;;;;2.89;100.00;96661.47;5032281;28;20517;-74
2022/04/10 09:13:31;;;;;;;5.33;3.60;;;;;;;3.08;100.00;96659.03;5025667;28;20475;-74
2022/04/10 09:16:17;;;;;;;3.87;3.53;;;;;;;3.07;100.00;96670.53;5025673;28;20466;-74
2022/04/10 09:19:07;;;;;;;3.03;2.73;;;;;;;2.99;100.00;96659.84;5022008;28;20888;-74
2022/04/10 09:21:40;;;;;;;2.80;2.20;;;;;;;2.89;100.00;96660.69;5061222;28;20951;-74
2022/04/10 09:24:08;;;;;;;6.47;3.27;;;;;;;2.59;100.00;96659.75;5086395;28;20509;-74
2022/04/10 09:26:51;;;;;;;3.03;2.80;;;;;;;2.85;100.00;96657.84;5085083;28;20501;-74
2022/04/10 09:29:19;;;;;;;6.77;2.50;;;;;;;2.65;100.00;96639.63;5078273;28;20949;-73
2022/04/10 09:31:47;;;;;;;7.87;2.90;;;;;;;2.89;100.00;96671.13;5104879;28;20960;-74
2022/04/10 09:34:16;;;;;;;4.10;2.50;;;;;;;3.02;100.00;96669.75;5087632;28;20443;-74
2022/04/10 09:37:04;;;;;;;4.13;2.73;;;;;;;3.24;100.00;96642.22;5080241;28;20812;-74
2022/04/10 09:39:36;;;;;;;3.93;2.80;;;;;;;3.55;100.00;96668.91;5086547;28;20438;-74
2022/04/10 09:42:07;;;;;;;3.83;2.73;;;;;;;3.49;100.00;96662.19;5088931;28;20494;-74
2022/04/10 09:44:39;;;;;;;5.20;4.03;;;;;;;3.60;100.00;96649.78;5089735;28;20468;-74
2022/04/10 09:47:09;;;;;;;4.90;3.00;;;;;;;3.65;100.00;96634.09;5086183;28;20496;-74
2022/04/10 09:49:41;;;;;;;3.87;2.37;;;;;;;3.86;100.00;96632.84;5085999;28;20449;-74
2022/04/10 09:52:08;;;;;;;2.63;1.80;;;;;;;3.97;100.00;96666.75;5090293;28;20450;-75
2022/04/10 09:54:44;;;;;;;5.00;2.27;;;;;;;3.73;100.00;96625.63;5068703;28;20952;-74
2022/04/10 09:57:13;;;;;;;5.23;2.73;;;;;;;3.93;100.00;96677.00;5092267;28;20467;-74
2022/04/10 09:59:47;;;;;;;2.40;2.20;;;;;;;3.85;100.00;96675.75;5091142;28;20521;-74
2022/04/10 10:02:16;;;;;;;3.53;2.10;;;;;;;3.60;100.00;96673.31;5092541;28;20949;-74
2022/04/10 10:04:44;;;;;;;3.13;2.80;;;;;;;3.70;100.00;96648.94;5093170;28;20463;-74
2022/04/10 10:07:16;;;;;;;5.13;2.77;;;;;;;3.80;100.00;96630.56;5090951;28;20469;-74
2022/04/10 10:09:44;;;;;;;3.33;2.50;;;;;;;4.11;100.00;96678.94;5092155;28;20439;-74
2022/04/10 10:12:12;;;;;;;13.93;10.67;;;;;;;4.13;100.00;96647.25;5088335;28;20469;-74
2022/04/10 10:14:39;;;;;;;10.80;6.37;;;;;;;3.97;100.00;96657.06;5093953;28;21486;-74
2022/04/10 10:17:07;;;;;;;1.67;1.57;;;;;;;3.99;100.00;96664.66;5063134;28;21065;-74
2022/04/10 10:19:38;;;;;;;3.80;1.77;;;;;;;3.95;100.00;96658.41;5094839;28;20651;-74
2022/04/10 10:22:12;;;;;;;3.40;2.30;;;;;;;3.94;100.00;96644.56;5093479;28;20438;-74
2022/04/10 10:24:57;;;;;;;3.27;2.97;;;;;;;4.05;100.00;96666.19;5093442;28;20805;-74
2022/04/10 10:27:59;;;;;;;2.40;2.20;;;;;;;4.19;100.00;96667.09;5082477;28;20513;-75
2022/04/10 10:31:03;;;;;;;6.97;3.07;;;;;;;4.10;100.00;96677.38;5064222;28;20474;-74
2022/04/10 10:33:31;;;;;;;3.20;2.00;;;;;;;4.17;100.00;96665.81;5094854;28;20476;-74
2022/04/10 10:35:59;;;;;;;4.40;2.57;;;;;;;4.21;100.00;96675.44;5093031;28;20472;-74
2022/04/10 10:38:26;;;;;;;2.17;2.00;;;;;;;4.16;100.00;96675.50;5093163;28;20498;-74
2022/04/10 10:41:09;;;;;;;4.80;1.80;;;;;;;3.91;100.00;96666.03;5093033;28;20503;-75
2022/04/10 10:43:35;;;;;;;4.23;2.00;;;;;;;3.94;100.00;96656.84;5092892;28;20468;-74
2022/04/10 10:46:22;;;;;;;3.57;2.10;;;;;;;3.75;100.00;96647.09;5092653;28;21084;-74
2022/04/10 10:49:10;;;;;;;3.40;2.40;;;;;;;4.32;100.00;96653.34;5093008;28;20432;-74
2022/04/10 10:51:39;;;;;;;2.87;1.80;;;;;;;4.18;100.00;96670.00;5092793;28;20442;-74
2022/04/10 10:54:11;;;;;;;3.20;1.60;;;;;;;3.95;100.00;96680.13;5092822;28;20531;-74
2022/04/10 10:56:40;;;;;;;3.63;2.03;;;;;;;3.46;100.00;96659.31;5075915;28;20995;-74
2022/04/10 10:59:31;;;;;;;5.87;2.50;;;;;;;3.54;100.00;96666.56;5092633;28;20480;-73
2022/04/10 11:02:02;;;;;;;3.70;2.73;;;;;;;3.67;100.00;96665.19;5094057;28;20431;-74
2022/04/10 11:04:35;;;;;;;2.43;2.23;;;;;;;4.33;100.00;96664.59;5076005;28;20439;-74
2022/04/10 11:07:12;;;;;;;4.50;1.93;;;;;;;4.88;100.00;96657.19;5090920;28;20472;-75
2022/04/10 11:09:56;;;;;;;2.37;2.17;;;;;;;4.15;100.00;96642.53;5083916;28;20432;-75
2022/04/10 11:12:30;;;;;;;3.67;1.80;;;;;;;3.98;100.00;96650.78;5092282;28;20544;-75
2022/04/10 11:14:59;;;;;;;8.73;2.43;;;;;;;4.05;100.00;96640.78;5092729;28;20473;-75
2022/04/10 11:17:28;;;;;;;1.70;1.50;;;;;;;4.23;100.00;96652.38;5062537;28;20461;-75
2022/04/10 11:20:01;;;;;;;1.87;1.63;;;;;;;4.94;100.00;96659.47;5092366;28;20514;-74
2022/04/10 11:22:39;;;;;;;1.77;1.67;;;;;;;5.10;100.00;96660.06;5093775;28;20822;-74
2022/04/10 11:25:08;;;;;;;4.97;1.80;;;;;;;5.61;100.00;96659.34;5092048;28;20449;-75
2022/04/10 11:27:46;;;;;;;4.23;1.80;;;;;;;5.58;94.89;96649.41;5093516;28;20453;-75
2022/04/10 11:30:24;;;;;;;3.50;2.30;;;;;;;5.51;91.67;96612.28;5092378;28;20913;-74
2022/04/10 11:32:59;;;;;;;2.90;2.10;;;;;;;6.15;88.22;96647.47;5075602;28;20998;-74
2022/04/10 11:35:34;;;;;;;2.10;1.90;;;;;;;6.43;81.76;96654.31;5092224;28;21006;-74
2022/04/10 11:38:06;;;;;;;4.13;1.60;;;;;;;6.26;81.13;96654.06;5093409;28;20957;-74
2022/04/10 11:40:37;;;;;;;2.70;1.80;;;;;;;6.42;78.46;96655.38;5075884;28;20429;-73
2022/04/10 11:43:07;;;;;;;2.13;1.93;;;;;;;6.09;75.38;96643.34;5071792;28;20983;-74
2022/04/10 11:45:34;;;;;;;1.37;1.27;;;;;;;5.10;73.56;96599.78;5085047;28;20502;-74